Time;durP1;ratioP1;P1;durP2;ratioP2;P2;SDS_P1;SDS_P2;PMS_P1;PMS_P2;Temp;Humidity;BMP_temperature;BMP_pressure;BME280_temperature;BME280_humidity;BME280_pressure;Samples;Min_cycle;Max_cycle;Signal;HPM_P1;HPM_P2
2021/10/09 00:01:38;;;;;;;35.97;24.75;;;11.40;99.90;;;;;;5012453;28;20153;-78
2021/10/09 00:04:05;;;;;;;40.00;25.10;;;11.40;99.90;;;;;;5010908;28;20152;-68
2021/10/09 00:06:31;;;;;;;37.95;25.48;;;11.30;99.90;;;;;;5011175;28;20037;-68
2021/10/09 00:08:57;;;;;;;40.22;26.70;;;11.20;99.90;;;;;;5010423;28;20026;-68
2021/10/09 00:11:34;;;;;;;45.00;26.98;;;11.30;99.90;;;;;;5010746;28;20095;-69
2021/10/09 00:14:00;;;;;;;44.00;26.48;;;11.20;99.90;;;;;;5010245;28;20028;-67
2021/10/09 00:16:26;;;;;;;40.72;25.80;;;11.30;99.90;;;;;;5010650;28;20373;-66
2021/10/09 00:18:52;;;;;;;42.35;26.10;;;11.20;99.90;;;;;;5011616;28;20118;-67
2021/10/09 00:21:17;;;;;;;52.78;29.58;;;11.20;99.90;;;;;;5010364;28;20029;-67
2021/10/09 00:23:43;;;;;;;47.28;26.95;;;11.20;99.90;;;;;;5010123;28;20060;-68
2021/10/09 00:26:09;;;;;;;41.35;26.33;;;11.20;99.90;;;;;;5010526;28;20110;-67
2021/10/09 00:28:34;;;;;;;41.30;27.55;;;11.20;99.90;;;;;;5011966;28;20042;-67
2021/10/09 00:31:00;;;;;;;45.33;26.85;;;11.10;99.90;;;;;;5010010;28;20144;-67
2021/10/09 00:33:25;;;;;;;39.08;24.38;;;11.10;99.90;;;;;;5010685;28;20092;-67
2021/10/09 00:35:51;;;;;;;38.17;24.55;;;11.00;99.90;;;;;;5011219;28;20095;-67
2021/10/09 00:38:17;;;;;;;35.67;24.90;;;11.10;99.90;;;;;;5011861;28;20021;-67
2021/10/09 00:40:43;;;;;;;36.10;24.92;;;11.10;99.90;;;;;;5010605;28;20026;-67
2021/10/09 00:43:08;;;;;;;38.55;24.60;;;11.10;99.90;;;;;;5011533;28;20432;-68
2021/10/09 00:45:34;;;;;;;42.45;24.50;;;11.10;99.90;;;;;;5010066;28;20022;-66
2021/10/09 00:48:00;;;;;;;35.97;23.20;;;11.10;99.90;;;;;;5009495;28;20152;-67
2021/10/09 00:50:25;;;;;;;43.63;26.30;;;11.20;99.90;;;;;;5009648;28;20451;-67
2021/10/09 00:52:54;;;;;;;35.67;24.20;;;11.10;99.90;;;;;;5010292;28;20408;-67
2021/10/09 00:55:20;;;;;;;34.47;22.80;;;11.20;99.90;;;;;;5011235;28;20026;-66
2021/10/09 00:57:47;;;;;;;32.28;22.75;;;11.10;99.90;;;;;;5009205;28;20041;-67
2021/10/09 01:00:14;;;;;;;31.52;22.30;;;11.10;99.90;;;;;;5010719;28;20152;-67
2021/10/09 01:02:39;;;;;;;35.63;22.50;;;11.10;99.90;;;;;;5009781;28;20084;-67
2021/10/09 01:05:08;;;;;;;43.42;24.27;;;11.00;99.90;;;;;;5010049;28;20053;-67
2021/10/09 01:07:33;;;;;;;33.20;22.35;;;11.00;99.90;;;;;;5009709;28;20112;-67
2021/10/09 01:10:00;;;;;;;38.70;23.95;;;10.90;99.90;;;;;;5008556;28;20462;-67
2021/10/09 01:12:27;;;;;;;39.95;22.85;;;10.90;99.90;;;;;;5010799;28;20021;-67
2021/10/09 01:14:53;;;;;;;35.28;22.30;;;10.80;99.90;;;;;;5010657;28;20028;-67
2021/10/09 01:17:19;;;;;;;46.50;24.05;;;10.80;99.90;;;;;;5009701;28;20116;-67
2021/10/09 01:19:45;;;;;;;35.53;23.23;;;10.90;99.90;;;;;;5008859;28;20116;-67
2021/10/09 01:22:11;;;;;;;37.72;22.75;;;10.80;99.90;;;;;;5009286;28;20068;-66
2021/10/09 01:24:38;;;;;;;40.25;23.27;;;10.90;99.90;;;;;;5009225;28;20033;-66
2021/10/09 01:27:04;;;;;;;34.80;23.52;;;10.70;99.90;;;;;;5008559;28;20030;-67
2021/10/09 01:29:31;;;;;;;38.47;23.23;;;10.80;99.90;;;;;;5008840;28;20029;-67
2021/10/09 01:31:58;;;;;;;34.08;23.52;;;10.80;99.90;;;;;;5010094;28;20116;-67
2021/10/09 01:34:26;;;;;;;34.25;23.10;;;10.70;99.90;;;;;;5008268;28;20033;-67
2021/10/09 01:36:52;;;;;;;35.38;22.75;;;10.80;99.90;;;;;;5008012;28;20417;-67
2021/10/09 01:39:18;;;;;;;35.40;22.42;;;10.70;99.90;;;;;;5008981;28;20022;-67
2021/10/09 01:41:46;;;;;;;35.42;22.75;;;10.70;99.90;;;;;;5008822;28;20022;-76
2021/10/09 01:44:14;;;;;;;35.17;22.77;;;10.70;99.90;;;;;;5010695;28;20017;-66
2021/10/09 01:46:39;;;;;;;34.22;22.95;;;10.70;99.90;;;;;;5008755;28;20025;-66
2021/10/09 01:49:06;;;;;;;39.67;23.55;;;10.70;99.90;;;;;;5009801;28;20080;-66
2021/10/09 01:51:32;;;;;;;38.78;23.35;;;10.70;99.90;;;;;;5009118;28;20414;-67
2021/10/09 01:53:58;;;;;;;43.03;26.50;;;10.70;99.90;;;;;;5008294;28;20448;-67
2021/10/09 01:56:24;;;;;;;34.55;23.00;;;10.60;99.90;;;;;;5009039;28;20065;-66
2021/10/09 01:58:51;;;;;;;36.55;24.25;;;10.60;99.90;;;;;;5008236;28;20058;-66
2021/10/09 02:01:16;;;;;;;36.90;23.55;;;10.60;99.90;;;;;;5009071;28;20036;-67
2021/10/09 02:03:42;;;;;;;37.38;23.98;;;10.60;99.90;;;;;;5008761;28;20022;-66
2021/10/09 02:06:08;;;;;;;39.92;24.15;;;10.60;99.90;;;;;;5008402;28;20030;-67
2021/10/09 02:08:34;;;;;;;40.42;23.50;;;10.60;99.90;;;;;;5008921;28;20044;-67
2021/10/09 02:11:03;;;;;;;39.97;25.23;;;10.60;99.90;;;;;;5009449;28;20034;-66
2021/10/09 02:13:42;;;;;;;37.47;25.13;;;10.50;99.90;;;;;;5010035;28;20033;-66
2021/10/09 02:24:32;;;;;;;36.40;24.13;;;10.60;99.90;;;;;;5010683;28;20032;-66
2021/10/09 02:26:58;;;;;;;37.67;24.65;;;10.50;99.90;;;;;;5008362;28;20021;-66
2021/10/09 02:29:24;;;;;;;41.20;25.17;;;10.30;99.90;;;;;;5010355;28;20029;-66
2021/10/09 02:31:50;;;;;;;42.55;24.38;;;10.50;99.90;;;;;;5009366;28;20377;-66
2021/10/09 02:34:16;;;;;;;39.90;22.90;;;10.40;99.90;;;;;;5008399;28;20022;-66
2021/10/09 02:36:42;;;;;;;37.92;24.73;;;10.30;99.90;;;;;;5009030;28;20029;-66
2021/10/09 02:39:08;;;;;;;39.88;24.00;;;10.30;99.90;;;;;;5008419;28;20463;-66
2021/10/09 02:41:33;;;;;;;41.13;24.80;;;10.30;99.90;;;;;;5010170;28;20479;-66
2021/10/09 02:43:59;;;;;;;39.53;24.35;;;10.30;99.90;;;;;;5008356;28;20058;-66
2021/10/09 02:46:25;;;;;;;45.03;24.55;;;10.30;99.90;;;;;;5013975;28;20083;-66
2021/10/09 02:48:51;;;;;;;36.90;23.23;;;10.20;99.90;;;;;;5011561;28;20119;-66
2021/10/09 02:51:16;;;;;;;39.22;25.13;;;10.30;99.90;;;;;;5013578;28;20427;-66
2021/10/09 02:53:42;;;;;;;39.65;24.50;;;10.20;99.90;;;;;;5012574;28;20018;-66
2021/10/09 02:56:07;;;;;;;40.03;25.60;;;10.20;99.90;;;;;;5011644;28;20220;-66
2021/10/09 02:58:33;;;;;;;40.13;24.58;;;10.20;99.90;;;;;;5012226;28;20026;-67
2021/10/09 03:00:59;;;;;;;41.80;23.95;;;10.30;99.90;;;;;;5028304;28;20057;-66
2021/10/09 03:03:25;;;;;;;43.97;25.08;;;10.40;99.90;;;;;;5013080;28;20054;-66
2021/10/09 03:05:50;;;;;;;40.90;25.20;;;10.30;99.90;;;;;;5012431;28;20049;-66
2021/10/09 03:08:16;;;;;;;41.55;27.13;;;10.30;99.90;;;;;;5012164;28;20025;-67
2021/10/09 03:10:42;;;;;;;44.47;26.25;;;10.30;99.90;;;;;;5012993;28;20320;-67
2021/10/09 03:13:08;;;;;;;41.80;26.63;;;10.20;99.90;;;;;;5014293;28;20025;-67
2021/10/09 03:15:34;;;;;;;40.28;26.40;;;10.30;99.90;;;;;;5013656;28;20049;-67
2021/10/09 03:17:59;;;;;;;42.05;25.40;;;10.30;99.90;;;;;;5011940;28;20029;-67
2021/10/09 03:20:25;;;;;;;39.88;25.10;;;10.30;99.90;;;;;;5012309;28;20030;-67
2021/10/09 03:22:51;;;;;;;39.13;25.50;;;10.30;99.90;;;;;;5012881;28;20018;-68
2021/10/09 03:25:18;;;;;;;42.38;25.35;;;10.30;99.90;;;;;;5012128;28;20075;-67
2021/10/09 03:27:44;;;;;;;41.13;26.35;;;10.30;99.90;;;;;;5013464;28;20406;-67
2021/10/09 03:30:10;;;;;;;37.55;25.80;;;10.20;99.90;;;;;;5012644;28;20068;-67
2021/10/09 03:32:36;;;;;;;43.85;26.52;;;10.20;99.90;;;;;;5012358;28;20068;-67
2021/10/09 03:35:03;;;;;;;42.95;26.58;;;10.10;99.90;;;;;;5011287;28;20026;-67
2021/10/09 03:37:28;;;;;;;38.50;24.63;;;10.10;99.90;;;;;;5013108;28;20042;-67
2021/10/09 03:39:56;;;;;;;44.00;25.25;;;10.20;99.90;;;;;;5012652;28;20451;-67
2021/10/09 03:42:27;;;;;;;41.85;25.02;;;10.20;99.90;;;;;;5011742;28;20036;-67
2021/10/09 03:50:19;;;;;;;39.72;25.02;;;10.10;99.90;;;;;;5012524;28;20121;-67
2021/10/09 03:52:45;;;;;;;39.95;22.13;;;10.10;99.90;;;;;;5011744;28;20450;-67
2021/10/09 03:55:16;;;;;;;34.42;23.88;;;10.10;99.90;;;;;;5010952;28;20057;-66
2021/10/09 03:57:43;;;;;;;40.15;24.15;;;10.10;99.90;;;;;;5011056;28;20038;-68
2021/10/09 04:00:12;;;;;;;39.38;23.55;;;10.10;99.90;;;;;;5011931;28;20486;-67
2021/10/09 04:02:38;;;;;;;39.55;22.10;;;10.10;99.90;;;;;;5011463;28;20422;-66
2021/10/09 04:05:04;;;;;;;38.08;23.13;;;10.00;99.90;;;;;;5012122;28;20042;-67
2021/10/09 04:07:29;;;;;;;40.60;23.35;;;10.00;99.90;;;;;;5011216;28;20030;-67
2021/10/09 04:09:55;;;;;;;36.67;22.95;;;9.90;99.90;;;;;;5010302;28;20066;-68
2021/10/09 04:12:21;;;;;;;36.80;23.13;;;9.90;99.90;;;;;;5011000;28;20101;-67
2021/10/09 04:14:47;;;;;;;32.13;20.88;;;9.80;99.90;;;;;;5011048;28;20140;-66
2021/10/09 04:17:12;;;;;;;36.85;22.75;;;9.90;99.90;;;;;;5010430;28;20763;-65
2021/10/09 04:19:38;;;;;;;35.65;22.48;;;9.90;99.90;;;;;;5011172;28;20072;-67
2021/10/09 04:22:04;;;;;;;33.97;21.88;;;9.90;99.90;;;;;;5011600;28;20022;-66
2021/10/09 04:24:30;;;;;;;32.88;22.08;;;9.80;99.90;;;;;;5010579;28;20478;-66
2021/10/09 04:26:56;;;;;;;32.55;20.92;;;9.90;99.90;;;;;;5011428;28;20022;-67
2021/10/09 04:29:22;;;;;;;39.65;22.77;;;9.90;99.90;;;;;;5010743;28;20521;-66
2021/10/09 04:31:48;;;;;;;43.38;22.30;;;9.80;99.90;;;;;;5010970;28;20032;-67
2021/10/09 04:34:14;;;;;;;35.00;22.35;;;9.80;99.90;;;;;;5011695;28;20367;-66
2021/10/09 04:36:40;;;;;;;50.70;22.48;;;9.90;99.90;;;;;;5010777;28;20030;-67
2021/10/09 04:39:05;;;;;;;34.42;21.90;;;10.00;99.90;;;;;;5009944;28;20018;-69
2021/10/09 04:41:31;;;;;;;35.58;23.20;;;10.00;99.90;;;;;;5009958;28;20392;-66
2021/10/09 04:43:57;;;;;;;34.00;23.27;;;10.00;99.90;;;;;;5009794;28;20026;-67
2021/10/09 04:46:23;;;;;;;36.20;21.95;;;10.00;99.90;;;;;;5010426;28;20028;-67
2021/10/09 04:48:48;;;;;;;37.38;22.35;;;10.00;99.90;;;;;;5011792;28;20022;-67
2021/10/09 04:51:14;;;;;;;37.88;21.35;;;10.00;99.90;;;;;;5009754;28;20418;-65
2021/10/09 04:53:39;;;;;;;37.65;22.30;;;10.00;99.90;;;;;;5011523;28;20021;-67
2021/10/09 04:56:05;;;;;;;43.05;22.58;;;10.10;99.90;;;;;;5009710;28;20375;-67
2021/10/09 04:58:31;;;;;;;34.85;22.00;;;10.10;99.90;;;;;;5010302;28;20052;-67
2021/10/09 05:00:57;;;;;;;34.38;21.30;;;10.00;99.90;;;;;;5009453;28;20452;-66
2021/10/09 05:03:22;;;;;;;35.15;22.38;;;10.10;99.90;;;;;;5010168;28;20068;-67
2021/10/09 05:05:48;;;;;;;34.47;22.05;;;10.10;99.90;;;;;;5011626;28;20167;-66
2021/10/09 05:08:13;;;;;;;40.75;22.02;;;10.10;99.90;;;;;;5009865;28;20143;-65
2021/10/09 05:10:41;;;;;;;35.08;22.27;;;10.00;99.90;;;;;;5011127;28;20328;-66
2021/10/09 05:13:07;;;;;;;36.72;22.83;;;10.10;99.90;;;;;;5010959;28;20022;-66
2021/10/09 05:15:32;;;;;;;34.55;22.00;;;10.00;99.90;;;;;;5009865;28;20018;-66
2021/10/09 05:17:58;;;;;;;33.08;22.73;;;10.10;99.90;;;;;;5009493;28;20032;-65
2021/10/09 05:20:23;;;;;;;34.75;22.45;;;10.10;99.90;;;;;;5010031;28;20026;-65
2021/10/09 05:22:49;;;;;;;36.80;23.10;;;10.10;99.90;;;;;;5009664;28;20026;-66
2021/10/09 05:25:15;;;;;;;33.47;21.88;;;10.10;99.90;;;;;;5009401;28;20022;-66
2021/10/09 05:27:50;;;;;;;35.03;21.27;;;10.10;99.90;;;;;;5011267;28;20444;-67
2021/10/09 05:30:15;;;;;;;35.60;22.17;;;10.10;99.90;;;;;;5009004;28;20032;-66
2021/10/09 05:32:48;;;;;;;32.50;21.15;;;10.10;99.90;;;;;;5009731;28;20026;-65
2021/10/09 05:35:14;;;;;;;39.00;23.40;;;10.10;99.90;;;;;;5009130;28;20018;-65
2021/10/09 05:37:40;;;;;;;32.10;21.33;;;10.10;99.90;;;;;;5010578;28;20045;-65
2021/10/09 05:40:07;;;;;;;34.10;22.30;;;10.00;99.90;;;;;;5009125;28;20160;-66
2021/10/09 05:42:33;;;;;;;40.60;23.33;;;9.90;99.90;;;;;;5011196;28;20113;-66
2021/10/09 05:44:58;;;;;;;41.42;24.02;;;10.00;99.90;;;;;;5009398;28;20391;-77
2021/10/09 05:47:26;;;;;;;36.25;23.08;;;10.10;99.90;;;;;;5011238;28;20428;-66
2021/10/09 05:49:55;;;;;;;36.72;23.15;;;10.00;99.90;;;;;;5010769;28;20064;-66
2021/10/09 05:52:36;;;;;;;36.10;22.65;;;10.00;99.90;;;;;;5009069;28;20029;-65
2021/10/09 05:55:16;;;;;;;35.38;22.90;;;10.00;99.90;;;;;;5010481;28;20025;-66
2021/10/09 06:47:09;;;;;;;32.65;18.23;;;11.50;99.90;;;;;;5011407;28;20477;-67
2021/10/09 07:00:32;;;;;;;28.02;18.70;;;12.50;99.90;;;;;;5014122;28;20467;-67
2021/10/09 07:02:57;;;;;;;31.67;19.38;;;12.60;99.90;;;;;;5012733;28;20022;-68
2021/10/09 07:05:23;;;;;;;31.35;19.17;;;12.80;99.90;;;;;;5013298;28;20053;-67
2021/10/09 07:07:55;;;;;;;31.63;19.98;;;13.10;99.90;;;;;;5012647;28;20083;-68
2021/10/09 07:10:21;;;;;;;29.15;20.88;;;13.20;99.90;;;;;;5011789;28;20408;-67
2021/10/09 07:12:47;;;;;;;24.75;17.75;;;13.10;99.90;;;;;;5013766;28;20515;-68
2021/10/09 07:15:15;;;;;;;30.10;19.05;;;13.30;99.90;;;;;;5011398;28;20057;-68
2021/10/09 07:17:41;;;;;;;25.00;17.60;;;13.60;99.90;;;;;;5012001;28;20045;-68
2021/10/09 07:20:08;;;;;;;24.70;17.40;;;13.70;99.90;;;;;;5010766;28;20065;-68
2021/10/09 07:22:35;;;;;;;31.80;18.77;;;14.00;99.90;;;;;;5011506;28;20021;-67
2021/10/09 07:25:01;;;;;;;28.83;17.42;;;14.20;99.90;;;;;;5013393;28;20025;-67
2021/10/09 07:27:27;;;;;;;26.02;18.23;;;14.20;99.90;;;;;;5011184;28;20064;-68
2021/10/09 07:29:52;;;;;;;24.05;16.23;;;14.50;99.90;;;;;;5011143;28;20137;-68
2021/10/09 07:32:18;;;;;;;24.90;16.35;;;14.70;99.90;;;;;;5011579;28;20363;-68
2021/10/09 07:34:44;;;;;;;28.17;17.85;;;14.90;99.90;;;;;;5011862;28;20455;-67
2021/10/09 07:37:10;;;;;;;22.80;15.77;;;14.80;99.90;;;;;;5010815;28;20033;-67
2021/10/09 07:39:36;;;;;;;24.95;16.75;;;14.90;99.90;;;;;;5011819;28;20420;-69
2021/10/09 07:42:02;;;;;;;25.13;17.58;;;15.30;99.90;;;;;;5013190;28;20061;-68
2021/10/09 07:44:28;;;;;;;25.10;16.27;;;15.50;99.90;;;;;;5011149;28;20084;-70
2021/10/09 07:46:55;;;;;;;24.20;16.77;;;15.70;99.90;;;;;;4998437;28;20509;-68
2021/10/09 07:49:21;;;;;;;27.45;17.75;;;15.90;99.90;;;;;;5008647;28;20029;-68
2021/10/09 07:51:47;;;;;;;28.00;16.17;;;16.00;99.70;;;;;;5009291;28;20041;-68
2021/10/09 07:54:13;;;;;;;23.67;15.98;;;16.20;99.70;;;;;;5010384;28;20093;-68
2021/10/09 07:56:39;;;;;;;23.42;16.85;;;16.40;99.60;;;;;;4996836;28;20227;-66
2021/10/09 07:59:05;;;;;;;24.27;15.38;;;16.40;99.30;;;;;;5008141;28;20148;-63
2021/10/09 08:01:32;;;;;;;20.38;12.95;;;16.80;99.90;;;;;;5006915;28;20076;-64
2021/10/09 08:03:58;;;;;;;23.33;13.98;;;17.40;99.90;;;;;;5004494;28;20037;-63
2021/10/09 08:06:24;;;;;;;17.52;13.27;;;17.80;99.90;;;;;;5005553;28;20034;-68
2021/10/09 08:08:50;;;;;;;23.38;14.10;;;17.70;98.40;;;;;;4998139;28;20109;-69
2021/10/09 08:11:16;;;;;;;21.02;13.57;;;17.70;97.10;;;;;;5008011;28;20172;-69
2021/10/09 08:13:43;;;;;;;19.58;13.48;;;17.90;96.90;;;;;;5007925;28;20108;-69
2021/10/09 08:16:09;;;;;;;20.85;13.05;;;17.70;96.80;;;;;;4999877;28;20029;-68
2021/10/09 08:18:34;;;;;;;25.70;13.48;;;17.70;96.80;;;;;;5005114;28;20459;-70
2021/10/09 08:21:03;;;;;;;16.77;13.25;;;17.70;96.60;;;;;;5004715;28;20112;-68
2021/10/09 08:23:39;;;;;;;21.08;14.32;;;17.90;96.70;;;;;;5011355;28;20018;-69
2021/10/09 08:37:07;;;;;;;17.85;12.27;;;18.70;95.50;;;;;;5011463;28;20416;-68
2021/10/09 08:39:33;;;;;;;16.55;11.90;;;18.80;95.10;;;;;;5011498;28;20022;-68
2021/10/09 08:42:00;;;;;;;18.13;12.30;;;19.20;94.90;;;;;;5010059;28;20033;-69
2021/10/09 08:44:25;;;;;;;21.92;12.23;;;19.40;94.90;;;;;;5009345;28;20125;-69
2021/10/09 08:46:51;;;;;;;22.95;12.40;;;19.70;94.00;;;;;;5009656;28;20026;-69
2021/10/09 08:49:17;;;;;;;13.40;10.93;;;19.90;93.70;;;;;;5010405;28;20057;-72
2021/10/09 08:51:42;;;;;;;23.13;12.02;;;20.00;93.00;;;;;;5009682;28;20025;-69
2021/10/09 08:54:12;;;;;;;17.58;10.65;;;19.80;92.60;;;;;;5010129;28;20021;-70
2021/10/09 08:56:47;;;;;;;18.58;10.40;;;20.10;92.60;;;;;;5005510;28;20205;-68
2021/10/09 08:59:29;;;;;;;14.55;9.55;;;20.20;92.20;;;;;;5008818;28;20029;-67
2021/10/09 09:02:03;;;;;;;20.67;9.25;;;20.40;91.80;;;;;;5010165;28;20375;-64
2021/10/09 09:04:46;;;;;;;17.80;10.25;;;20.50;93.70;;;;;;5008664;28;20046;-64
2021/10/09 09:40:03;;;;;;;12.82;8.70;;;22.40;87.80;;;;;;4992202;28;20437;-67
2021/10/09 09:42:28;;;;;;;16.77;9.80;;;22.40;83.80;;;;;;5008026;28;20113;-68
2021/10/09 09:44:59;;;;;;;12.57;8.60;;;21.90;87.70;;;;;;5010397;28;20048;-68
2021/10/09 09:47:33;;;;;;;;;;;21.80;86.40;;;;;;5008748;28;20029;-67
2021/10/09 09:50:03;;;;;;;15.20;8.32;;;22.10;85.00;;;;;;5008966;28;19905;-68
2021/10/09 09:52:32;;;;;;;17.37;8.53;;;22.20;83.40;;;;;;5008079;28;20029;-66
2021/10/09 09:54:59;;;;;;;13.10;9.00;;;22.30;83.80;;;;;;5010653;28;20583;-69
2021/10/09 09:57:28;;;;;;;17.63;8.75;;;22.10;83.10;;;;;;5011354;28;20037;-67
2021/10/09 09:59:56;;;;;;;12.23;8.27;;;22.50;83.90;;;;;;5007307;28;20022;-68
2021/10/09 10:02:23;;;;;;;15.45;8.35;;;22.80;84.40;;;;;;5001927;28;20026;-68
2021/10/09 10:04:49;;;;;;;19.58;9.10;;;23.50;83.40;;;;;;5012923;28;20046;-68
2021/10/09 10:07:16;;;;;;;13.98;7.90;;;23.10;80.60;;;;;;5002217;28;20026;-67
2021/10/09 10:09:42;;;;;;;15.93;8.88;;;22.70;82.90;;;;;;5026670;28;20123;-68
2021/10/09 10:12:08;;;;;;;13.73;9.30;;;23.30;83.80;;;;;;5011332;28;20022;-67
2021/10/09 10:14:35;;;;;;;13.77;8.90;;;23.60;82.90;;;;;;5007995;28;20030;-67
2021/10/09 10:17:01;;;;;;;19.45;9.18;;;23.70;82.20;;;;;;5016671;28;20042;-66
2021/10/09 10:19:51;;;;;;;17.00;10.18;;;23.80;81.70;;;;;;5027362;28;20021;-67
2021/10/09 10:22:38;;;;;;;17.63;9.05;;;24.10;80.50;;;;;;5024917;28;20025;-70
2021/10/09 10:25:26;;;;;;;14.10;9.13;;;24.30;81.70;;;;;;5004480;28;20048;-67
2021/10/09 10:28:01;;;;;;;11.45;9.15;;;24.30;79.10;;;;;;5015357;28;20038;-68
2021/10/09 10:30:31;;;;;;;12.63;8.63;;;23.50;78.90;;;;;;5014552;28;20034;-68
2021/10/09 10:32:57;;;;;;;15.23;8.18;;;23.50;81.10;;;;;;5015468;28;20117;-68
2021/10/09 10:35:29;;;;;;;12.43;8.25;;;23.70;78.80;;;;;;5015696;28;20021;-68
2021/10/09 10:38:07;;;;;;;16.40;8.02;;;24.10;79.00;;;;;;5016177;28;20033;-68
2021/10/09 10:40:49;;;;;;;15.77;8.57;;;23.90;78.50;;;;;;5014855;28;20026;-67
2021/10/09 10:46:48;;;;;;;10.52;8.38;;;24.40;78.10;;;;;;5016040;28;20510;-68
2021/10/09 10:56:57;;;;;;;12.90;8.05;;;24.50;76.00;;;;;;5016348;28;20383;-68
2021/10/09 10:59:29;;;;;;;15.00;7.00;;;24.60;77.10;;;;;;5013761;28;20022;-68
2021/10/09 11:02:12;;;;;;;13.40;8.48;;;24.80;75.80;;;;;;5014483;28;20025;-68
2021/10/09 11:04:39;;;;;;;13.00;8.57;;;24.50;76.50;;;;;;5015443;28;20049;-68
2021/10/09 11:07:06;;;;;;;10.20;6.65;;;24.50;76.60;;;;;;5011425;28;20436;-68
2021/10/09 11:09:33;;;;;;;14.05;7.57;;;24.80;77.10;;;;;;5011070;28;20431;-68
2021/10/09 11:11:59;;;;;;;9.35;7.50;;;25.40;76.50;;;;;;5011412;28;20032;-68
2021/10/09 11:14:28;;;;;;;14.68;7.47;;;25.80;74.70;;;;;;5010568;28;20018;-69
2021/10/09 11:17:04;;;;;;;16.45;8.30;;;25.90;74.70;;;;;;5011274;28;20030;-68
2021/10/09 11:19:59;;;;;;;9.20;6.88;;;25.60;74.50;;;;;;5011812;28;20030;-70
2021/10/09 11:22:41;;;;;;;12.68;8.23;;;25.50;73.50;;;;;;4998263;28;20037;-68
2021/10/09 11:25:07;;;;;;;8.75;6.88;;;25.50;74.30;;;;;;5011058;28;20088;-69
2021/10/09 11:27:35;;;;;;;9.60;8.02;;;25.00;73.20;;;;;;5010529;28;20034;-70
2021/10/09 11:30:09;;;;;;;11.15;6.32;;;25.30;73.40;;;;;;5012856;28;20034;-69
2021/10/09 11:32:37;;;;;;;16.40;6.78;;;25.60;74.60;;;;;;5010391;28;20466;-68
2021/10/09 11:35:04;;;;;;;24.23;6.90;;;25.40;73.00;;;;;;5011118;28;20029;-68
2021/10/09 11:37:29;;;;;;;9.32;6.25;;;25.60;73.70;;;;;;5009813;28;20388;-69
2021/10/09 11:39:58;;;;;;;10.07;6.55;;;25.40;73.00;;;;;;5012159;28;20128;-69
2021/10/09 11:42:37;;;;;;;9.32;7.03;;;24.80;72.60;;;;;;5009701;28;20022;-69
2021/10/09 11:45:37;;;;;;;14.20;6.05;;;24.70;75.50;;;;;;5011153;28;20021;-68
2021/10/09 11:53:34;;;;;;;14.43;7.40;;;26.00;73.60;;;;;;5011603;28;20046;-70
2021/10/09 11:54:19;;;;;;;9.38;6.72;;;25.90;73.10;;;;;;5011368;28;20107;-69
2021/10/09 11:56:46;;;;;;;13.75;7.35;;;26.00;71.10;;;;;;5010549;28;20030;-69
2021/10/09 11:59:13;;;;;;;7.53;5.93;;;26.00;70.90;;;;;;5012264;28;20097;-69
2021/10/09 12:01:44;;;;;;;13.38;6.05;;;26.00;70.90;;;;;;5010048;28;20029;-69
2021/10/09 12:04:20;;;;;;;10.45;6.47;;;26.30;70.60;;;;;;5010136;28;20088;-70
2021/10/09 12:07:02;;;;;;;17.25;6.22;;;26.40;70.00;;;;;;5010684;28;20431;-70
2021/10/09 12:09:34;;;;;;;11.48;6.15;;;27.10;68.70;;;;;;5011364;28;20566;-68
2021/10/09 12:12:21;;;;;;;9.57;5.25;;;27.00;70.20;;;;;;5010481;28;20018;-68
2021/10/09 12:14:48;;;;;;;10.45;6.82;;;27.30;69.20;;;;;;5010440;28;20025;-69
2021/10/09 12:17:15;;;;;;;12.27;7.05;;;27.10;67.10;;;;;;5011023;28;20535;-69
2021/10/09 12:19:41;;;;;;;15.05;7.72;;;26.90;67.70;;;;;;5009765;28;20022;-69
2021/10/09 12:22:11;;;;;;;16.30;6.28;;;27.40;67.20;;;;;;5010105;28;20428;-70
2021/10/09 12:24:52;;;;;;;18.57;5.90;;;27.30;66.30;;;;;;5011410;28;20460;-70
2021/10/09 12:27:37;;;;;;;10.75;4.85;;;27.70;64.00;;;;;;5011723;28;20358;-70
2021/10/09 12:30:10;;;;;;;12.77;6.07;;;27.60;64.00;;;;;;5010215;28;20128;-70
2021/10/09 12:32:51;;;;;;;11.05;5.45;;;27.60;64.20;;;;;;5011100;28;20034;-70
2021/10/09 12:35:20;;;;;;;;;;;27.50;62.80;;;;;;5010278;28;20029;-70
2021/10/09 12:38:03;;;;;;;6.65;4.25;;;27.40;63.30;;;;;;5009247;28;19983;-69
2021/10/09 12:40:38;;;;;;;8.80;4.80;;;27.30;63.40;;;;;;5011383;28;20483;-70
2021/10/09 12:43:10;;;;;;;8.60;4.00;;;27.80;64.20;;;;;;5010176;28;20427;-70
2021/10/09 12:45:37;;;;;;;9.85;5.22;;;27.70;62.40;;;;;;5009504;28;20022;-69
2021/10/09 12:48:03;;;;;;;11.40;5.25;;;27.80;62.80;;;;;;5009157;28;20026;-69
2021/10/09 12:50:35;;;;;;;6.88;4.25;;;26.90;63.30;;;;;;5009133;28;20098;-69
2021/10/09 12:53:01;;;;;;;9.20;5.47;;;27.30;63.00;;;;;;5011057;28;20128;-69
2021/10/09 12:55:31;;;;;;;7.93;4.72;;;26.90;62.40;;;;;;5009045;28;20168;-69
2021/10/09 12:57:59;;;;;;;11.05;4.72;;;27.10;63.80;;;;;;5009718;28;20117;-70
2021/10/09 13:00:26;;;;;;;13.23;5.03;;;27.30;61.70;;;;;;5010121;28;20040;-70
2021/10/09 13:02:52;;;;;;;7.93;4.50;;;27.00;62.50;;;;;;5010854;28;20109;-69
2021/10/09 13:05:19;;;;;;;7.28;4.05;;;27.40;62.40;;;;;;5010889;28;20095;-71
2021/10/09 13:07:46;;;;;;;8.27;4.20;;;27.60;61.50;;;;;;5009759;28;20097;-70
2021/10/09 13:10:12;;;;;;;10.48;4.05;;;27.50;61.00;;;;;;5008673;28;20034;-55
2021/10/09 13:12:38;;;;;;;9.05;4.95;;;27.20;63.00;;;;;;5009504;28;20038;-53
2021/10/09 13:15:04;;;;;;;9.93;4.20;;;27.60;63.10;;;;;;5009794;28;20034;-70
2021/10/09 13:17:30;;;;;;;14.43;5.40;;;26.90;62.70;;;;;;5008608;28;20049;-68
2021/10/09 13:19:56;;;;;;;6.65;4.22;;;27.70;62.00;;;;;;5009401;28;20030;-68
2021/10/09 13:22:22;;;;;;;9.70;3.75;;;27.90;63.20;;;;;;5009080;28;20495;-68
2021/10/09 13:24:47;;;;;;;10.50;4.15;;;28.10;61.70;;;;;;5008415;28;20069;-68
2021/10/09 13:27:13;;;;;;;12.85;4.88;;;28.30;61.20;;;;;;5009210;28;20103;-67
2021/10/09 13:29:39;;;;;;;10.70;3.90;;;28.40;59.80;;;;;;5007416;28;20025;-67
2021/10/09 13:32:05;;;;;;;6.25;3.95;;;27.80;59.80;;;;;;5008835;28;20026;-68
2021/10/09 13:34:31;;;;;;;11.63;4.30;;;28.00;59.10;;;;;;5008939;28;20172;-68
2021/10/09 13:36:57;;;;;;;8.85;4.10;;;26.80;60.20;;;;;;5009156;28;20099;-68
2021/10/09 13:39:23;;;;;;;6.70;4.10;;;27.00;60.00;;;;;;5009298;28;20461;-68
2021/10/09 13:41:49;;;;;;;9.05;4.60;;;27.50;59.90;;;;;;5008674;28;20102;-68
2021/10/09 13:44:14;;;;;;;7.80;4.15;;;27.10;61.30;;;;;;5010596;28;20026;-67
2021/10/09 13:46:40;;;;;;;10.80;3.97;;;27.10;60.60;;;;;;5009887;28;20543;-68
2021/10/09 13:49:06;;;;;;;12.18;4.70;;;27.10;60.50;;;;;;5009265;28;20037;-68
2021/10/09 13:51:33;;;;;;;11.20;4.20;;;26.80;60.40;;;;;;5008212;28;20036;-68
2021/10/09 13:53:58;;;;;;;9.48;4.15;;;27.10;61.70;;;;;;5010558;28;20030;-68
2021/10/09 13:56:24;;;;;;;7.18;4.47;;;27.20;59.30;;;;;;5009005;28;20367;-67
2021/10/09 13:58:50;;;;;;;12.35;4.15;;;27.00;60.20;;;;;;5007947;28;20037;-68
2021/10/09 14:01:16;;;;;;;8.77;4.13;;;27.10;61.50;;;;;;5010022;28;20033;-68
2021/10/09 14:03:46;;;;;;;7.28;4.30;;;27.20;60.70;;;;;;5008158;28;20180;-67
2021/10/09 14:06:11;;;;;;;7.05;4.35;;;26.90;60.50;;;;;;5010327;28;20220;-68
2021/10/09 14:08:37;;;;;;;10.18;3.97;;;26.70;59.50;;;;;;5009347;28;20479;-68
2021/10/09 14:11:04;;;;;;;12.05;4.45;;;26.60;59.80;;;;;;5008309;28;20022;-69
2021/10/09 14:13:30;;;;;;;7.10;4.13;;;26.70;60.60;;;;;;5009547;28;20061;-68
2021/10/09 14:15:56;;;;;;;9.10;4.80;;;26.50;61.10;;;;;;5007967;28;20036;-68
2021/10/09 14:18:22;;;;;;;13.52;5.13;;;26.50;60.80;;;;;;5009950;28;20022;-67
2021/10/09 14:20:49;;;;;;;11.45;6.43;;;26.00;60.20;;;;;;5008851;28;20199;-68
2021/10/09 14:23:16;;;;;;;9.98;4.93;;;26.00;61.00;;;;;;5008022;28;20036;-68
2021/10/09 14:25:42;;;;;;;7.88;5.50;;;26.30;61.50;;;;;;5007484;28;20033;-68
2021/10/09 14:28:09;;;;;;;7.03;4.45;;;26.20;60.70;;;;;;5008230;28;20092;-67
2021/10/09 14:30:36;;;;;;;7.13;5.13;;;26.10;61.40;;;;;;5009017;28;20022;-68
2021/10/09 14:33:02;;;;;;;5.68;4.25;;;26.00;60.90;;;;;;5009723;28;20030;-67
2021/10/09 14:35:27;;;;;;;9.63;4.80;;;25.70;61.80;;;;;;5008029;28;20026;-68
2021/10/09 14:37:53;;;;;;;6.80;4.63;;;25.80;61.40;;;;;;5007057;28;20041;-68
2021/10/09 14:40:19;;;;;;;13.32;4.40;;;26.00;62.00;;;;;;5009666;28;20107;-68
2021/10/09 14:42:45;;;;;;;8.77;4.82;;;25.80;61.90;;;;;;5010937;28;20030;-68
2021/10/09 14:45:13;;;;;;;9.70;4.30;;;25.90;61.60;;;;;;5012646;28;20036;-68
2021/10/09 14:48:22;;;;;;;8.50;5.03;;;25.70;61.80;;;;;;5010730;28;20531;-68
2021/10/09 14:50:39;;;;;;;10.27;4.72;;;25.50;62.80;;;;;;5009434;28;20129;-68